createdAt,value
2022-09-06T00:01:47.909Z,40.28
2022-09-06T00:04:15.577Z,40.61
2022-09-06T00:06:42.339Z,40.58
2022-09-06T00:09:08.843Z,40.61
2022-09-06T00:11:35.438Z,40.86
2022-09-06T00:14:02.001Z,41.02
2022-09-06T00:16:30.451Z,41.21
2022-09-06T00:18:57.378Z,40.88
2022-09-06T00:21:26.256Z,40.94
2022-09-06T00:23:53.238Z,41.28
2022-09-06T00:26:20.868Z,41.07
2022-09-06T00:28:47.654Z,41.03
2022-09-06T00:31:17.371Z,41.42
2022-09-06T00:33:44.706Z,41.22
2022-09-06T00:36:12.752Z,41.42
2022-09-06T00:38:40.446Z,41.52
2022-09-06T00:41:10.238Z,41.51
2022-09-06T00:43:37.612Z,41.75
2022-09-06T00:46:06.937Z,41.64
2022-09-06T00:48:35.286Z,41.90
2022-09-06T00:51:06.706Z,42.21
2022-09-06T00:53:35.832Z,42.28
2022-09-06T00:56:02.769Z,41.94
2022-09-06T00:58:31.884Z,42.33
2022-09-06T01:00:58.530Z,41.99
2022-09-06T01:03:26.399Z,42.41
2022-09-06T01:06:04.847Z,42.56
2022-09-06T01:09:03.080Z,42.89
2022-09-06T01:12:01.719Z,42.50
2022-09-06T01:15:06.170Z,42.30
2022-09-06T01:17:50.492Z,42.31
2022-09-06T01:20:41.928Z,42.68
2022-09-06T01:23:29.768Z,42.66
2022-09-06T01:26:32.501Z,42.53
2022-09-06T01:28:59.138Z,42.35
2022-09-06T01:31:31.182Z,42.79
2022-09-06T01:34:17.364Z,43.32
2022-09-06T01:37:10.209Z,42.84
2022-09-06T01:39:39.364Z,42.97
2022-09-06T01:42:28.418Z,43.46
2022-09-06T01:45:00.119Z,43.33
2022-09-06T01:47:47.488Z,43.51
2022-09-06T01:50:23.379Z,43.53
2022-09-06T01:52:58.786Z,42.94
2022-09-06T01:55:37.459Z,43.58
2022-09-06T01:58:17.007Z,43.21
2022-09-06T02:01:27.244Z,43.30
2022-09-06T02:04:16.921Z,43.48
2022-09-06T02:06:50.108Z,44.13
2022-09-06T02:09:28.771Z,43.63
2022-09-06T02:11:58.593Z,43.66
2022-09-06T02:14:36.320Z,44.05
2022-09-06T02:17:05.906Z,43.83
2022-09-06T02:19:50.579Z,44.26
2022-09-06T02:22:21.792Z,44.46
2022-09-06T02:24:53.396Z,44.49
2022-09-06T02:27:20.272Z,43.96
2022-09-06T02:29:47.033Z,44.14
2022-09-06T02:32:22.725Z,44.21
2022-09-06T02:34:52.155Z,44.48
2022-09-06T02:37:19.129Z,44.29
2022-09-06T02:39:45.781Z,44.30
2022-09-06T02:42:14.773Z,44.43
2022-09-06T02:44:41.472Z,44.68
2022-09-06T02:47:08.118Z,44.48
2022-09-06T02:49:34.788Z,44.54
2022-09-06T02:52:01.464Z,44.53
2022-09-06T02:54:28.120Z,44.57
2022-09-06T02:56:54.709Z,44.39
2022-09-06T02:59:21.297Z,44.47
2022-09-06T03:01:47.899Z,44.63
2022-09-06T03:04:14.417Z,44.68
2022-09-06T03:06:40.968Z,44.66
2022-09-06T03:09:07.543Z,44.95
2022-09-06T03:11:34.108Z,45.03
2022-09-06T03:14:00.680Z,45.24
2022-09-06T03:16:27.349Z,45.04
2022-09-06T03:18:53.954Z,45.20
2022-09-06T03:21:20.546Z,45.20
2022-09-06T03:23:51.042Z,45.47
2022-09-06T03:26:17.579Z,45.52
2022-09-06T03:28:44.177Z,45.81
2022-09-06T03:31:11.081Z,45.87
2022-09-06T03:33:37.826Z,45.67
2022-09-06T03:36:04.533Z,45.95
2022-09-06T03:38:31.305Z,46.14
2022-09-06T03:41:00.370Z,46.06
2022-09-06T03:43:27.771Z,46.40
2022-09-06T03:45:57.481Z,46.41
2022-09-06T03:48:26.549Z,46.71
2022-09-06T03:50:55.075Z,46.36
2022-09-06T03:53:25.325Z,46.70
2022-09-06T03:55:54.877Z,46.74
2022-09-06T03:58:23.178Z,47.00
2022-09-06T04:00:49.879Z,47.02
2022-09-06T04:03:19.512Z,46.62
2022-09-06T04:05:46.647Z,46.97
2022-09-06T04:08:13.678Z,47.12
2022-09-06T04:10:40.593Z,47.14
2022-09-06T04:13:07.150Z,46.69
2022-09-06T04:15:33.685Z,47.05
2022-09-06T04:18:00.274Z,47.26
2022-09-06T04:20:26.832Z,47.00
2022-09-06T04:22:53.753Z,47.35
2022-09-06T04:25:20.336Z,47.37
2022-09-06T04:27:46.910Z,47.25
2022-09-06T04:30:13.501Z,46.98
2022-09-06T04:32:40.589Z,46.77
2022-09-06T04:35:07.684Z,47.44
2022-09-06T04:37:34.245Z,47.70
2022-09-06T04:40:00.845Z,47.45
2022-09-06T04:42:27.523Z,47.10
2022-09-06T04:44:54.107Z,47.12
2022-09-06T04:47:20.898Z,46.93
2022-09-06T04:49:49.420Z,46.84
2022-09-06T04:52:16.749Z,47.31
2022-09-06T04:54:43.634Z,47.45
2022-09-06T04:57:10.318Z,47.75
2022-09-06T04:59:37.053Z,47.31
2022-09-06T05:02:03.834Z,47.50
2022-09-06T05:04:30.508Z,47.62
2022-09-06T05:07:05.168Z,47.58
2022-09-06T05:09:32.873Z,47.13
2022-09-06T05:11:59.920Z,47.03
2022-09-06T05:14:27.219Z,47.26
2022-09-06T05:16:54.576Z,47.37
2022-09-06T05:19:21.693Z,47.29
2022-09-06T05:21:48.268Z,47.62
2022-09-06T05:24:14.924Z,47.31
2022-09-06T05:26:41.451Z,47.76
2022-09-06T05:29:08.088Z,48.08
2022-09-06T05:31:35.595Z,47.99
2022-09-06T05:34:02.723Z,48.17
2022-09-06T05:36:30.505Z,48.47
2022-09-06T05:38:58.163Z,48.07
2022-09-06T05:41:25.380Z,47.54
2022-09-06T05:43:51.984Z,47.59
2022-09-06T05:46:18.989Z,47.81
2022-09-06T05:48:56.186Z,48.31
2022-09-06T05:51:22.723Z,48.74
2022-09-06T05:53:49.339Z,48.90
2022-09-06T05:56:16.664Z,49.10
2022-09-06T05:58:43.278Z,49.60
2022-09-06T06:01:15.721Z,49.90
2022-09-06T06:03:43.391Z,49.78
2022-09-06T06:06:09.992Z,49.93
2022-09-06T06:08:36.709Z,50.15
2022-09-06T06:11:03.303Z,49.97
2022-09-06T06:13:31.821Z,50.54
2022-09-06T06:15:58.350Z,50.86
2022-09-06T06:18:25.067Z,51.21
2022-09-06T06:20:51.879Z,51.10
2022-09-06T06:23:18.454Z,51.26
2022-09-06T06:25:45.009Z,51.15
2022-09-06T06:28:11.565Z,51.30
2022-09-06T06:30:38.116Z,51.58
2022-09-06T06:33:04.692Z,51.70
2022-09-06T06:35:31.242Z,51.66
2022-09-06T06:37:57.944Z,51.73
2022-09-06T06:40:24.549Z,52.02
2022-09-06T06:42:51.242Z,52.23
2022-09-06T06:45:18.730Z,52.12
2022-09-06T06:47:49.768Z,52.85
2022-09-06T06:50:16.798Z,52.19
2022-09-06T06:52:43.375Z,52.70
2022-09-06T06:55:09.994Z,53.25
2022-09-06T06:57:36.550Z,52.95
2022-09-06T07:00:04.863Z,53.45
2022-09-06T07:02:31.577Z,53.86
2022-09-06T07:04:58.366Z,53.58
2022-09-06T07:07:33.590Z,53.87
2022-09-06T07:12:48.705Z,53.77
2022-09-06T07:15:15.371Z,53.66
2022-09-06T07:17:41.922Z,54.24
2022-09-06T07:22:39.748Z,54.29
2022-09-06T07:25:08.392Z,53.93
2022-09-06T07:27:50.479Z,54.28
2022-09-06T07:30:19.673Z,53.74
2022-09-06T07:32:46.422Z,53.23
2022-09-06T07:35:14.221Z,53.58
2022-09-06T07:37:40.877Z,53.93
2022-09-06T07:40:08.184Z,53.89
2022-09-06T07:42:36.328Z,53.67
2022-09-06T07:45:04.308Z,53.91
2022-09-06T07:53:11.230Z,53.20
2022-09-06T07:55:42.344Z,53.33
2022-09-06T07:58:08.908Z,52.73
2022-09-06T08:00:35.480Z,51.90
2022-09-06T08:03:02.151Z,52.37
2022-09-06T08:11:02.450Z,51.45
2022-09-06T08:13:29.266Z,51.81
2022-09-06T08:16:04.961Z,51.96
2022-09-06T08:18:31.768Z,51.81
2022-09-06T08:21:13.357Z,51.77
2022-09-06T08:23:44.009Z,51.38
2022-09-06T08:26:11.122Z,51.52
2022-09-06T08:28:37.809Z,51.34
2022-09-06T08:31:12.426Z,51.29
2022-09-06T08:33:40.119Z,51.01
2022-09-06T08:36:08.074Z,51.19
2022-09-06T08:38:35.214Z,51.60
2022-09-06T08:41:13.963Z,51.40
2022-09-06T08:46:58.158Z,50.95
2022-09-06T08:49:27.818Z,50.75
2022-09-06T08:52:02.961Z,50.76
2022-09-06T08:54:40.168Z,50.56
2022-09-06T08:57:09.740Z,50.23
2022-09-06T08:59:40.170Z,49.85
2022-09-06T09:02:20.163Z,49.44
2022-09-06T09:04:52.069Z,50.81
2022-09-06T09:07:33.233Z,49.38
2022-09-06T09:10:06.420Z,49.96
2022-09-06T09:12:41.759Z,49.24
2022-09-06T09:15:12.594Z,49.39
2022-09-06T09:17:39.268Z,49.48
2022-09-06T09:20:08.670Z,49.55
2022-09-06T09:22:35.947Z,49.36
2022-09-06T09:25:04.200Z,49.34
2022-09-06T09:27:34.940Z,49.26
2022-09-06T09:32:53.108Z,48.54
2022-09-06T09:35:24.219Z,48.06
2022-09-06T09:38:07.865Z,47.99
2022-09-06T09:41:03.806Z,47.54
2022-09-06T09:43:33.230Z,47.66
2022-09-06T09:46:31.069Z,47.45
2022-09-06T09:49:06.513Z,47.36
2022-09-06T09:51:38.917Z,47.52
2022-09-06T09:54:08.678Z,46.43
2022-09-06T09:56:35.239Z,46.46
2022-09-06T09:59:03.788Z,46.65
2022-09-06T10:01:36.058Z,46.08
2022-09-06T10:07:09.544Z,45.45
2022-09-06T10:09:41.570Z,44.98
2022-09-06T10:12:08.548Z,44.94
2022-09-06T10:14:48.893Z,45.47
2022-09-06T10:17:32.369Z,45.30
2022-09-06T10:20:11.665Z,44.99
2022-09-06T10:22:44.181Z,44.30
2022-09-06T10:25:29.375Z,44.34
2022-09-06T10:28:12.271Z,42.24
2022-09-06T10:30:56.327Z,44.44
2022-09-06T10:33:59.743Z,43.28
2022-09-06T10:36:34.555Z,41.16
2022-09-06T10:39:22.875Z,40.19
2022-09-06T10:42:01.846Z,41.40
2022-09-06T10:44:31.188Z,40.98
2022-09-06T10:47:12.351Z,41.46
2022-09-06T10:49:43.070Z,39.95
2022-09-06T10:52:15.607Z,40.64
2022-09-06T10:54:42.433Z,40.74
2022-09-06T11:00:13.784Z,39.00
2022-09-06T11:02:45.070Z,38.15
2022-09-06T11:11:06.194Z,39.02
2022-09-06T11:13:33.053Z,39.93
2022-09-06T11:16:02.757Z,36.70
2022-09-06T11:19:04.877Z,36.44
2022-09-06T11:21:56.150Z,36.04
2022-09-06T11:24:25.397Z,34.45
2022-09-06T11:27:11.172Z,32.75
2022-09-06T11:29:44.161Z,30.12
2022-09-06T11:32:29.527Z,31.53
2022-09-06T11:35:02.472Z,28.87
2022-09-06T11:37:36.530Z,28.47
2022-09-06T11:42:56.160Z,28.50
2022-09-06T11:45:41.718Z,27.43
2022-09-06T11:48:23.265Z,26.91
2022-09-06T11:50:58.895Z,26.17
2022-09-06T11:53:29.261Z,24.69
2022-09-06T11:56:28.975Z,25.73
2022-09-06T11:59:21.593Z,25.69
2022-09-06T12:02:06.507Z,24.57
2022-09-06T12:05:01.090Z,25.13
2022-09-06T12:07:29.211Z,23.39
2022-09-06T12:09:56.191Z,23.63
2022-09-06T12:12:45.945Z,23.35
2022-09-06T12:15:30.722Z,23.09
2022-09-06T12:17:59.886Z,21.57
2022-09-06T12:20:48.171Z,23.07
2022-09-06T12:23:50.512Z,23.20
2022-09-06T12:26:55.976Z,22.59
2022-09-06T12:29:25.894Z,20.81
2022-09-06T12:31:55.223Z,21.34
2022-09-06T12:34:25.462Z,20.43
2022-09-06T12:36:59.157Z,20.50
2022-09-06T12:39:26.640Z,21.14
2022-09-06T12:42:01.283Z,20.25
2022-09-06T12:44:32.754Z,19.27
2022-09-06T12:47:31.122Z,21.21
2022-09-06T12:50:17.939Z,20.90
2022-09-06T12:52:50.560Z,19.47
2022-09-06T12:55:23.268Z,18.78
2022-09-06T12:57:51.505Z,21.94
2022-09-06T13:00:19.348Z,18.48
2022-09-06T13:03:06.135Z,19.36
2022-09-06T13:05:33.021Z,18.11
2022-09-06T13:08:03.385Z,17.34
2022-09-06T13:10:41.906Z,17.96
2022-09-06T13:13:08.746Z,17.78
2022-09-06T13:15:35.359Z,17.09
2022-09-06T13:18:31.128Z,18.08
2022-09-06T13:21:01.914Z,16.25
2022-09-06T13:23:30.052Z,16.77
2022-09-06T13:25:57.102Z,16.31
2022-09-06T13:28:29.033Z,15.66
2022-09-06T13:31:17.548Z,16.26
2022-09-06T13:33:45.350Z,16.11
2022-09-06T13:36:11.817Z,16.03
2022-09-06T13:38:42.551Z,15.48
2022-09-06T13:41:27.416Z,16.80
2022-09-06T13:44:05.050Z,16.14
2022-09-06T13:46:33.271Z,16.08
2022-09-06T13:49:00.490Z,16.16
2022-09-06T13:51:27.112Z,16.52
2022-09-06T13:54:10.638Z,16.49
2022-09-06T13:56:37.492Z,15.02
2022-09-06T13:59:04.650Z,15.42
2022-09-06T14:01:33.877Z,15.05
2022-09-06T14:04:00.494Z,14.90
2022-09-06T14:06:27.255Z,16.09
2022-09-06T14:09:07.034Z,16.75
2022-09-06T14:11:34.734Z,17.18
2022-09-06T14:14:01.344Z,16.72
2022-09-06T14:16:27.877Z,16.54
2022-09-06T14:18:54.456Z,15.72
2022-09-06T14:21:21.152Z,15.22
2022-09-06T14:23:52.319Z,15.25
2022-09-06T14:26:21.492Z,15.67
2022-09-06T14:28:48.565Z,16.04
2022-09-06T14:31:25.965Z,16.78
2022-09-06T14:33:54.287Z,16.45
2022-09-06T14:36:23.496Z,17.59
2022-09-06T14:38:50.959Z,17.82
2022-09-06T14:41:18.951Z,18.75
2022-09-06T14:43:51.748Z,18.94
2022-09-06T14:46:19.942Z,19.61
2022-09-06T14:48:46.789Z,19.72
2022-09-06T14:51:21.960Z,19.31
2022-09-06T14:53:50.888Z,19.73
2022-09-06T14:56:18.241Z,19.72
2022-09-06T14:58:44.992Z,20.02
2022-09-06T15:01:13.098Z,19.73
2022-09-06T15:03:46.795Z,19.42
2022-09-06T15:06:13.368Z,19.31
2022-09-06T15:08:40.047Z,19.05
2022-09-06T15:11:08.169Z,18.73
2022-09-06T15:13:37.309Z,18.39
2022-09-06T15:16:08.218Z,18.08
2022-09-06T15:18:35.642Z,18.08
2022-09-06T15:21:12.655Z,18.16
2022-09-06T15:23:39.925Z,18.25
2022-09-06T15:26:09.894Z,18.78
2022-09-06T15:28:38.097Z,19.39
2022-09-06T15:31:06.300Z,19.65
2022-09-06T15:33:37.274Z,19.93
2022-09-06T15:36:10.990Z,20.13
2022-09-06T15:38:50.606Z,20.37
2022-09-06T15:41:19.589Z,20.48
2022-09-06T15:43:48.299Z,20.89
2022-09-06T15:46:17.661Z,21.17
2022-09-06T15:48:49.566Z,21.42
2022-09-06T15:51:19.289Z,21.78
2022-09-06T15:53:46.389Z,22.00
2022-09-06T15:56:15.666Z,22.40
2022-09-06T15:58:42.779Z,22.51
2022-09-06T16:01:15.050Z,23.25
2022-09-06T16:03:43.631Z,22.79
2022-09-06T16:06:31.426Z,23.52
2022-09-06T16:09:08.386Z,23.41
2022-09-06T16:11:36.823Z,23.86
2022-09-06T16:14:09.448Z,23.95
2022-09-06T16:16:36.043Z,23.20
2022-09-06T16:19:03.435Z,24.17
2022-09-06T16:21:32.704Z,24.42
2022-09-06T16:24:04.322Z,25.00
2022-09-06T16:26:34.142Z,25.54
2022-09-06T16:29:01.849Z,25.89
2022-09-06T16:31:29.796Z,25.78
2022-09-06T16:33:58.031Z,25.95
2022-09-06T16:36:25.440Z,26.18
2022-09-06T16:38:52.544Z,27.14
2022-09-06T16:41:22.675Z,27.37
2022-09-06T16:43:49.610Z,27.80
2022-09-06T16:46:16.728Z,28.73
2022-09-06T16:48:43.777Z,28.22
2022-09-06T16:51:15.364Z,29.21
2022-09-06T16:53:44.482Z,28.54
2022-09-06T16:56:14.115Z,28.71
2022-09-06T16:58:42.025Z,29.13
2022-09-06T17:01:12.583Z,29.85
2022-09-06T17:03:39.894Z,29.16
2022-09-06T17:06:07.703Z,29.91
2022-09-06T17:08:36.463Z,29.75
2022-09-06T17:11:09.507Z,30.03
2022-09-06T17:13:36.705Z,30.02
2022-09-06T17:16:22.829Z,30.18
2022-09-06T17:18:50.226Z,30.02
2022-09-06T17:21:16.792Z,30.27
2022-09-06T17:23:43.631Z,31.00
2022-09-06T17:26:10.592Z,31.15
2022-09-06T17:28:38.333Z,31.25
2022-09-06T17:31:05.630Z,31.47
2022-09-06T17:33:32.709Z,31.97
2022-09-06T17:36:14.976Z,31.38
2022-09-06T17:38:43.076Z,32.43
2022-09-06T17:41:28.316Z,32.74
2022-09-06T17:43:55.662Z,33.03
2022-09-06T17:46:27.806Z,34.14
2022-09-06T17:48:55.983Z,33.28
2022-09-06T17:51:23.225Z,34.10
2022-09-06T17:53:49.848Z,34.31
2022-09-06T17:56:18.275Z,35.00
2022-09-06T17:58:53.742Z,35.30
2022-09-06T18:01:20.997Z,34.70
2022-09-06T18:03:47.842Z,35.12
2022-09-06T18:06:19.982Z,35.39
2022-09-06T18:08:47.120Z,35.45
2022-09-06T18:11:18.027Z,35.69
2022-09-06T18:13:45.371Z,36.15
2022-09-06T18:16:14.254Z,35.95
2022-09-06T18:18:41.529Z,36.25
2022-09-06T18:21:08.281Z,36.37
2022-09-06T18:23:35.593Z,36.61
2022-09-06T18:26:07.155Z,36.64
2022-09-06T18:28:36.697Z,36.19
2022-09-06T18:31:08.882Z,37.47
2022-09-06T18:33:36.798Z,36.98
2022-09-06T18:36:05.400Z,36.80
2022-09-06T18:38:32.044Z,36.45
2022-09-06T18:41:01.086Z,36.43
2022-09-06T18:43:30.723Z,36.46
2022-09-06T18:46:03.756Z,36.89
2022-09-06T18:48:33.709Z,36.43
2022-09-06T18:51:08.070Z,37.08
2022-09-06T18:53:35.432Z,36.61
2022-09-06T18:56:02.215Z,36.77
2022-09-06T18:58:29.079Z,36.97
2022-09-06T19:01:03.186Z,36.94
2022-09-06T19:03:31.496Z,37.03
2022-09-06T19:06:05.018Z,36.99
2022-09-06T19:08:31.678Z,37.23
2022-09-06T19:11:07.713Z,37.20
2022-09-06T19:13:36.802Z,37.61
2022-09-06T19:16:05.649Z,37.16
2022-09-06T19:18:34.071Z,37.56
2022-09-06T19:21:09.417Z,37.62
2022-09-06T19:23:44.861Z,37.48
2022-09-06T19:26:17.899Z,37.56
2022-09-06T19:28:53.179Z,37.78
2022-09-06T19:31:20.221Z,37.59
2022-09-06T19:33:48.711Z,37.58
2022-09-06T19:36:16.214Z,37.68
2022-09-06T19:39:01.990Z,37.63
2022-09-06T19:41:30.717Z,37.96
2022-09-06T19:43:58.726Z,37.77
2022-09-06T19:46:25.868Z,37.70
2022-09-06T19:48:54.122Z,37.76
2022-09-06T19:51:21.271Z,37.95
2022-09-06T19:53:50.035Z,37.93
2022-09-06T19:56:22.472Z,38.46
2022-09-06T19:58:55.321Z,38.69
2022-09-06T20:01:22.439Z,36.72
2022-09-06T20:03:49.114Z,37.97
2022-09-06T20:06:15.888Z,37.94
2022-09-06T20:08:42.443Z,38.10
2022-09-06T20:11:12.560Z,38.62
2022-09-06T20:13:39.835Z,38.53
2022-09-06T20:16:08.701Z,38.92
2022-09-06T20:18:35.648Z,38.68
2022-09-06T20:21:02.978Z,39.10
2022-09-06T20:23:30.896Z,39.00
2022-09-06T20:26:10.049Z,39.08
2022-09-06T20:28:37.356Z,39.09
2022-09-06T20:31:09.658Z,39.47
2022-09-06T20:33:37.318Z,39.08
2022-09-06T20:36:06.514Z,39.40
2022-09-06T20:38:38.771Z,39.37
2022-09-06T20:41:06.971Z,39.54
2022-09-06T20:43:36.749Z,39.29
2022-09-06T20:46:14.990Z,39.96
2022-09-06T20:48:44.974Z,39.75
2022-09-06T20:51:18.947Z,40.37
2022-09-06T20:53:52.859Z,40.25
2022-09-06T20:56:22.207Z,40.27
2022-09-06T20:58:54.599Z,40.77
2022-09-06T21:01:26.520Z,40.54
2022-09-06T21:03:56.662Z,40.88
2022-09-06T21:06:24.763Z,41.03
2022-09-06T21:08:51.882Z,40.80
2022-09-06T21:11:19.184Z,41.36
2022-09-06T21:13:53.633Z,41.61
2022-09-06T21:16:24.198Z,41.48
2022-09-06T21:18:57.026Z,42.12
2022-09-06T21:21:25.445Z,41.57
2022-09-06T21:23:52.636Z,41.74
2022-09-06T21:26:19.719Z,41.92
2022-09-06T21:28:47.742Z,42.25
2022-09-06T21:31:15.785Z,42.46
2022-09-06T21:33:54.655Z,42.56
2022-09-06T21:36:30.140Z,42.92
2022-09-06T21:39:02.281Z,42.70
2022-09-06T21:41:30.123Z,42.46
2022-09-06T21:43:59.382Z,42.82
2022-09-06T21:46:32.581Z,43.04
2022-09-06T21:49:04.385Z,43.48
2022-09-06T21:51:32.469Z,43.51
2022-09-06T21:53:59.595Z,43.43
2022-09-06T21:56:26.336Z,43.21
2022-09-06T21:58:55.736Z,43.58
2022-09-06T22:01:23.930Z,44.00
2022-09-06T22:03:51.150Z,43.87
2022-09-06T22:06:29.574Z,44.15
2022-09-06T22:09:02.517Z,43.58
2022-09-06T22:11:30.499Z,42.64
2022-09-06T22:14:02.256Z,43.67
2022-09-06T22:16:30.253Z,43.39
2022-09-06T22:18:57.036Z,43.80
2022-09-06T22:21:24.613Z,43.59
2022-09-06T22:23:52.076Z,43.98
2022-09-06T22:26:19.744Z,44.08
2022-09-06T22:28:46.603Z,43.84
2022-09-06T22:31:13.295Z,43.84
2022-09-06T22:33:40.205Z,44.32
2022-09-06T22:36:07.487Z,44.54
2022-09-06T22:38:34.910Z,44.25
2022-09-06T22:41:01.808Z,44.40
2022-09-06T22:43:28.546Z,44.61
2022-09-06T22:46:02.885Z,44.91
2022-09-06T22:48:29.562Z,44.72
2022-09-06T22:50:56.205Z,44.91
2022-09-06T22:53:22.730Z,44.54
2022-09-06T22:55:49.276Z,44.66
2022-09-06T22:58:15.873Z,44.59
2022-09-06T23:00:42.656Z,44.55
2022-09-06T23:03:09.298Z,44.93
2022-09-06T23:05:35.952Z,44.76
2022-09-06T23:08:03.627Z,44.78
2022-09-06T23:10:31.088Z,45.09
2022-09-06T23:12:58.758Z,44.94
2022-09-06T23:15:25.555Z,45.26
2022-09-06T23:17:52.101Z,45.22
2022-09-06T23:20:19.396Z,45.29
2022-09-06T23:22:47.269Z,45.48
2022-09-06T23:25:13.944Z,45.28
2022-09-06T23:27:40.699Z,45.42
2022-09-06T23:30:08.123Z,45.53
2022-09-06T23:32:34.673Z,45.39
2022-09-06T23:35:01.331Z,45.44
2022-09-06T23:37:27.886Z,45.55
2022-09-06T23:39:54.603Z,45.73
2022-09-06T23:42:23.044Z,45.75
2022-09-06T23:44:49.799Z,45.22
2022-09-06T23:47:16.374Z,45.34
2022-09-06T23:49:45.449Z,45.75
2022-09-06T23:52:12.146Z,45.42
2022-09-06T23:54:38.752Z,45.56
2022-09-06T23:57:05.351Z,45.33
2022-09-06T23:59:32.470Z,45.22
